createdAt,value
2023-02-11T00:01:09.722Z,102342.38
2023-02-11T00:03:38.809Z,102344.16
2023-02-11T00:06:10.170Z,102345.03
2023-02-11T00:08:39.498Z,102345.88
2023-02-11T00:11:07.847Z,102345.06
2023-02-11T00:13:36.017Z,102340.69
2023-02-11T00:16:09.359Z,102350.28
2023-02-11T00:18:37.663Z,102348.53
2023-02-11T00:21:09.778Z,102352.91
2023-02-11T00:23:38.164Z,102355.53
2023-02-11T00:26:13.684Z,102348.53
2023-02-11T00:28:44.040Z,102365.97
2023-02-11T00:31:14.526Z,102354.63
2023-02-11T00:33:43.031Z,102354.63
2023-02-11T00:36:15.120Z,102352.00
2023-02-11T00:38:44.219Z,102354.59
2023-02-11T00:41:13.082Z,102341.50
2023-02-11T00:43:41.736Z,102330.13
2023-02-11T00:46:10.730Z,102323.16
2023-02-11T00:48:40.915Z,102304.78
2023-02-11T00:51:10.020Z,102306.53
2023-02-11T00:53:39.268Z,102300.44
2023-02-11T00:56:07.883Z,102304.84
2023-02-11T00:58:36.117Z,102299.56
2023-02-11T01:01:04.826Z,102307.44
2023-02-11T01:03:33.685Z,102303.94
2023-02-11T01:06:03.908Z,102306.53
2023-02-11T01:08:32.464Z,102301.28
2023-02-11T01:11:02.837Z,102294.28
2023-02-11T01:13:33.085Z,102275.06
2023-02-11T01:16:01.349Z,102285.56
2023-02-11T01:18:29.582Z,102261.09
2023-02-11T01:20:57.794Z,102252.28
2023-02-11T01:23:28.664Z,102238.38
2023-02-11T01:25:57.686Z,102238.38
2023-02-11T01:28:28.903Z,102228.81
2023-02-11T01:30:57.674Z,102226.19
2023-02-11T01:33:28.070Z,102237.53
2023-02-11T01:35:56.317Z,102234.00
2023-02-11T01:38:26.804Z,102233.13
2023-02-11T01:40:59.977Z,102238.31
2023-02-11T01:43:29.906Z,102247.06
2023-02-11T01:46:34.594Z,102267.19
2023-02-11T01:49:07.294Z,102265.41
2023-02-11T01:51:40.156Z,102272.34
2023-02-11T01:54:29.414Z,102265.41
2023-02-11T01:57:18.510Z,102247.00
2023-02-11T01:59:51.316Z,102241.75
2023-02-11T02:02:24.796Z,102238.28
2023-02-11T02:04:58.658Z,102240.97
2023-02-11T02:07:35.684Z,102246.09
2023-02-11T02:10:08.648Z,102234.75
2023-02-11T02:12:39.102Z,102226.00
2023-02-11T02:15:20.265Z,102239.19
2023-02-11T02:18:21.427Z,102239.16
2023-02-11T02:21:30.771Z,102227.75
2023-02-11T02:24:14.215Z,102232.13
2023-02-11T02:27:03.689Z,102229.44
2023-02-11T02:30:12.072Z,102235.59
2023-02-11T02:33:22.760Z,102219.00
2023-02-11T02:36:03.915Z,102233.00
2023-02-11T02:38:37.408Z,102234.72
2023-02-11T02:41:09.597Z,102237.38
2023-02-11T02:43:42.977Z,102227.72
2023-02-11T02:46:13.158Z,102231.22
2023-02-11T02:48:41.403Z,102206.69
2023-02-11T02:51:22.196Z,102201.44
2023-02-11T02:53:59.304Z,102200.59
2023-02-11T02:56:34.556Z,102205.03
2023-02-11T02:59:22.558Z,102205.84
2023-02-11T03:01:58.985Z,102199.69
2023-02-11T03:04:32.383Z,102192.78
2023-02-11T03:07:09.986Z,102193.53
2023-02-11T03:09:43.792Z,102187.44
2023-02-11T03:12:13.932Z,102174.34
2023-02-11T03:14:42.627Z,102172.66
2023-02-11T03:17:11.408Z,102177.03
2023-02-11T03:19:42.341Z,102174.44
2023-02-11T03:22:17.747Z,102173.47
2023-02-11T03:24:46.901Z,102168.31
2023-02-11T03:27:21.552Z,102165.63
2023-02-11T03:29:54.675Z,102155.06
2023-02-11T03:32:28.452Z,102154.09
2023-02-11T03:35:00.111Z,102141.09
2023-02-11T03:37:34.800Z,102137.53
2023-02-11T03:40:06.200Z,102138.47
2023-02-11T03:42:40.404Z,102144.66
2023-02-11T03:45:11.844Z,102137.63
2023-02-11T03:47:44.567Z,102143.69
2023-02-11T03:50:15.644Z,102143.72
2023-02-11T03:52:47.773Z,102150.69
2023-02-11T03:55:19.463Z,102145.50
2023-02-11T03:57:48.681Z,102143.72
2023-02-11T04:00:17.130Z,102142.00
2023-02-11T04:02:46.079Z,102141.06
2023-02-11T04:05:17.062Z,102141.19
2023-02-11T04:07:46.812Z,102143.72
2023-02-11T04:10:15.206Z,102130.59
2023-02-11T04:12:43.430Z,102128.06
2023-02-11T04:15:11.626Z,102100.91
2023-02-11T04:17:39.788Z,102101.78
2023-02-11T04:20:08.672Z,102104.28
2023-02-11T04:22:37.116Z,102113.09
2023-02-11T04:25:07.816Z,102113.94
2023-02-11T04:27:36.051Z,102110.41
2023-02-11T04:30:04.622Z,102118.22
2023-02-11T04:32:32.781Z,102112.03
2023-02-11T04:35:01.100Z,102116.41
2023-02-11T04:37:29.277Z,102111.22
2023-02-11T04:39:57.845Z,102110.41
2023-02-11T04:42:27.397Z,102106.00
2023-02-11T04:44:55.535Z,102112.06
2023-02-11T04:47:23.734Z,102102.41
2023-02-11T04:49:51.920Z,102111.94
2023-02-11T04:52:20.174Z,102092.75
2023-02-11T04:54:48.333Z,102096.28
2023-02-11T04:57:16.760Z,102092.75
2023-02-11T04:59:46.251Z,102098.06
2023-02-11T05:02:14.480Z,102098.88
2023-02-11T05:04:42.674Z,102075.25
2023-02-11T05:07:11.138Z,102077.84
2023-02-11T05:09:39.403Z,102081.31
2023-02-11T05:12:08.278Z,102088.34
2023-02-11T05:14:36.555Z,102068.16
2023-02-11T05:17:06.168Z,102064.66
2023-02-11T05:19:34.586Z,102055.91
2023-02-11T05:22:03.767Z,102034.16
2023-02-11T05:24:32.469Z,102028.00
2023-02-11T05:27:01.044Z,102032.44
2023-02-11T05:29:29.543Z,102026.19
2023-02-11T05:31:59.226Z,102013.00
2023-02-11T05:34:28.754Z,102010.44
2023-02-11T05:36:57.030Z,102008.63
2023-02-11T05:39:25.262Z,102033.13
2023-02-11T05:41:53.437Z,102033.03
2023-02-11T05:44:22.046Z,102041.88
2023-02-11T05:46:50.289Z,102048.78
2023-02-11T05:49:19.148Z,102049.75
2023-02-11T05:51:48.694Z,102044.34
2023-02-11T05:54:17.759Z,102047.94
2023-02-11T05:56:45.912Z,102036.63
2023-02-11T05:59:15.302Z,102040.09
2023-02-11T06:01:43.565Z,102040.91
2023-02-11T06:04:11.811Z,102052.22
2023-02-11T06:06:40.447Z,102054.09
2023-02-11T06:09:10.745Z,102061.91
2023-02-11T06:11:39.375Z,102066.25
2023-02-11T06:14:07.591Z,102076.75
2023-02-11T06:16:35.795Z,102067.97
2023-02-11T06:19:04.117Z,102065.34
2023-02-11T06:21:43.287Z,102074.13
2023-02-11T06:24:13.781Z,102074.00
2023-02-11T06:26:42.136Z,102074.00
2023-02-11T06:29:10.319Z,102066.25
2023-02-11T06:31:39.670Z,102072.31
2023-02-11T06:34:08.124Z,102075.88
2023-02-11T06:36:36.743Z,102073.16
2023-02-11T06:39:05.541Z,102066.19
2023-02-11T06:41:35.061Z,102068.66
2023-02-11T06:44:03.219Z,102065.09
2023-02-11T06:46:31.522Z,102062.47
2023-02-11T06:48:59.727Z,102058.94
2023-02-11T06:51:28.378Z,102049.34
2023-02-11T06:53:56.685Z,102036.34
2023-02-11T06:56:27.335Z,102032.00
2023-02-11T06:58:57.482Z,102029.25
2023-02-11T07:01:27.182Z,102029.38
2023-02-11T07:03:55.910Z,102020.53
2023-02-11T07:06:27.231Z,102027.53
2023-02-11T07:08:56.500Z,102018.72
2023-02-11T07:11:26.477Z,102019.56
2023-02-11T07:14:00.851Z,102014.28
2023-02-11T07:16:29.240Z,102020.47
2023-02-11T07:18:57.466Z,102015.28
2023-02-11T07:21:25.832Z,102011.66
2023-02-11T07:23:54.718Z,102010.81
2023-02-11T07:26:25.756Z,102005.50
2023-02-11T07:28:54.313Z,102005.50
2023-02-11T07:31:26.934Z,102001.88
2023-02-11T07:33:57.001Z,101996.63
2023-02-11T07:36:25.410Z,101982.44
2023-02-11T07:38:53.664Z,101977.03
2023-02-11T07:41:24.698Z,101968.22
2023-02-11T07:43:53.551Z,101971.72
2023-02-11T07:46:25.288Z,101971.78
2023-02-11T07:48:53.951Z,101977.03
2023-02-11T07:51:24.058Z,101985.63
2023-02-11T07:53:52.653Z,101990.72
2023-02-11T07:56:21.530Z,102003.97
2023-02-11T07:58:50.868Z,101988.06
2023-02-11T08:01:25.025Z,101994.28
2023-02-11T08:03:56.161Z,101995.91
2023-02-11T08:06:26.527Z,102004.63
2023-02-11T08:08:54.940Z,101999.31
2023-02-11T08:11:25.196Z,102012.53
2023-02-11T08:13:53.987Z,102015.06
2023-02-11T08:16:25.115Z,102011.63
2023-02-11T08:18:57.337Z,102007.13
2023-02-11T08:21:26.356Z,101995.53
2023-02-11T08:23:55.262Z,102013.06
2023-02-11T08:26:26.040Z,102021.69
2023-02-11T08:28:55.937Z,102009.25
2023-02-11T08:31:26.168Z,102008.25
2023-02-11T08:33:58.152Z,102000.53
2023-02-11T08:36:28.540Z,101997.63
2023-02-11T08:39:12.224Z,101994.91
2023-02-11T08:41:46.663Z,102001.94
2023-02-11T08:44:14.933Z,102019.59
2023-02-11T08:46:43.403Z,101994.25
2023-02-11T08:49:13.011Z,101990.59
2023-02-11T08:51:41.186Z,101993.97
2023-02-11T08:54:10.076Z,102019.28
2023-02-11T08:56:39.416Z,101999.13
2023-02-11T08:59:09.209Z,101999.16
2023-02-11T09:01:37.594Z,101996.16
2023-02-11T09:04:06.137Z,101989.81
2023-02-11T09:06:35.711Z,101991.72
2023-02-11T09:09:03.899Z,101991.19
2023-02-11T09:11:34.848Z,102008.53
2023-02-11T09:14:04.352Z,102008.44
2023-02-11T09:16:34.919Z,101990.94
2023-02-11T09:19:06.399Z,101996.13
2023-02-11T09:21:35.947Z,101989.81
2023-02-11T09:24:04.348Z,102012.59
2023-02-11T09:26:34.591Z,102027.53
2023-02-11T09:29:04.426Z,102022.25
2023-02-11T09:31:34.817Z,102017.09
2023-02-11T09:34:05.518Z,102018.72
2023-02-11T09:36:38.406Z,102012.59
2023-02-11T09:39:08.483Z,102014.38
2023-02-11T09:41:48.813Z,102032.81
2023-02-11T09:44:23.344Z,102036.19
2023-02-11T09:46:57.813Z,102033.53
2023-02-11T09:49:31.872Z,102029.06
2023-02-11T09:52:06.405Z,102046.72
2023-02-11T09:54:40.438Z,102044.84
2023-02-11T09:57:22.968Z,102054.53
2023-02-11T09:59:57.747Z,102070.16
2023-02-11T10:02:35.375Z,102092.06
2023-02-11T10:05:18.784Z,102107.78
2023-02-11T10:07:56.832Z,102107.78
2023-02-11T10:10:41.355Z,102109.63
2023-02-11T10:13:37.042Z,102108.69
2023-02-11T10:16:19.244Z,102099.97
2023-02-11T10:19:11.353Z,102092.81
2023-02-11T10:21:51.579Z,102096.28
2023-02-11T10:24:21.778Z,102092.78
2023-02-11T10:26:50.192Z,102098.81
2023-02-11T10:29:34.503Z,102087.47
2023-02-11T10:32:08.385Z,102090.72
2023-02-11T10:34:42.043Z,102082.16
2023-02-11T10:37:12.875Z,102079.28
2023-02-11T10:39:42.583Z,102074.91
2023-02-11T10:42:13.393Z,102062.81
2023-02-11T10:44:52.644Z,102070.59
2023-02-11T10:47:23.333Z,102049.50
2023-02-11T10:49:51.574Z,102053.00
2023-02-11T10:52:24.120Z,102046.03
2023-02-11T10:55:02.853Z,102044.38
2023-02-11T10:57:37.136Z,102027.59
2023-02-11T11:00:10.009Z,102027.31
2023-02-11T11:02:44.051Z,102039.63
2023-02-11T11:05:18.996Z,102036.97
2023-02-11T11:07:54.310Z,102029.91
2023-02-11T11:10:43.698Z,102033.38
2023-02-11T11:13:28.200Z,102026.53
2023-02-11T11:16:16.314Z,102034.31
2023-02-11T11:18:46.681Z,102035.19
2023-02-11T11:21:17.664Z,102024.53
2023-02-11T11:23:52.031Z,102021.03
2023-02-11T11:26:22.610Z,102007.03
2023-02-11T11:29:02.576Z,102026.44
2023-02-11T11:31:34.505Z,102015.78
2023-02-11T11:34:17.873Z,102032.59
2023-02-11T11:36:46.327Z,102035.19
2023-02-11T11:39:25.967Z,102044.88
2023-02-11T11:41:58.416Z,102040.34
2023-02-11T11:44:32.778Z,102037.75
2023-02-11T11:47:24.855Z,102029.84
2023-02-11T11:50:12.659Z,102037.75
2023-02-11T11:52:47.183Z,102041.19
2023-02-11T11:55:21.580Z,102045.41
2023-02-11T11:57:51.469Z,102046.19
2023-02-11T12:00:22.666Z,102061.25
2023-02-11T12:03:28.100Z,102066.41
2023-02-11T12:06:22.504Z,102059.34
2023-02-11T12:09:02.777Z,102062.91
2023-02-11T12:11:40.202Z,102064.56
2023-02-11T12:14:24.116Z,102064.50
2023-02-11T12:17:01.477Z,102056.50
2023-02-11T12:19:46.423Z,102060.97
2023-02-11T12:22:28.151Z,102054.00
2023-02-11T12:25:08.461Z,102052.78
2023-02-11T12:27:47.810Z,102059.81
2023-02-11T12:30:33.630Z,102047.47
2023-02-11T12:33:09.180Z,102051.03
2023-02-11T12:35:48.168Z,102046.72
2023-02-11T12:38:33.116Z,102057.16
2023-02-11T12:41:13.452Z,102071.28
2023-02-11T12:43:43.533Z,102073.09
2023-02-11T12:46:35.551Z,102076.53
2023-02-11T12:49:27.781Z,102085.19
2023-02-11T12:52:13.661Z,102078.97
2023-02-11T12:54:47.689Z,102073.81
2023-02-11T12:57:21.373Z,102081.56
2023-02-11T12:59:56.681Z,102086.78
2023-02-11T13:02:32.819Z,102095.53
2023-02-11T13:05:05.117Z,102090.25
2023-02-11T13:07:37.995Z,102094.66
2023-02-11T13:10:17.666Z,102094.75
2023-02-11T13:13:06.791Z,102105.47
2023-02-11T13:15:35.294Z,102109.66
2023-02-11T13:18:13.710Z,102112.50
2023-02-11T13:20:49.106Z,102121.34
2023-02-11T13:23:25.973Z,102117.81
2023-02-11T13:25:59.152Z,102112.53
2023-02-11T13:28:40.163Z,102118.53
2023-02-11T13:31:09.640Z,102115.06
2023-02-11T13:33:43.072Z,102123.81
2023-02-11T13:36:15.637Z,102113.22
2023-02-11T13:38:53.586Z,102134.44
2023-02-11T13:41:27.551Z,102132.56
2023-02-11T13:44:01.855Z,102124.88
2023-02-11T13:46:48.757Z,102135.28
2023-02-11T13:49:24.261Z,102132.66
2023-02-11T13:51:54.247Z,102116.06
2023-02-11T13:54:27.340Z,102138.88
2023-02-11T13:57:26.438Z,102140.59
2023-02-11T13:59:56.124Z,102157.44
2023-02-11T14:02:51.065Z,102166.00
2023-02-11T14:05:56.251Z,102173.25
2023-02-11T14:08:43.220Z,102182.03
2023-02-11T14:11:49.708Z,102178.50
2023-02-11T14:14:23.894Z,102185.63
2023-02-11T14:17:21.940Z,102188.97
2023-02-11T14:19:52.015Z,102189.94
2023-02-11T14:22:25.943Z,102196.09
2023-02-11T14:24:57.821Z,102212.53
2023-02-11T14:27:35.386Z,102204.69
2023-02-11T14:30:15.354Z,102213.56
2023-02-11T14:32:58.432Z,102215.25
2023-02-11T14:35:33.092Z,102221.38
2023-02-11T14:38:10.817Z,102226.56
2023-02-11T14:40:47.466Z,102238.19
2023-02-11T14:43:21.289Z,102229.06
2023-02-11T14:45:52.938Z,102232.66
2023-02-11T14:48:23.721Z,102237.94
2023-02-11T14:50:54.792Z,102243.28
2023-02-11T14:53:26.816Z,102252.91
2023-02-11T14:55:57.516Z,102261.69
2023-02-11T14:58:29.910Z,102259.88
2023-02-11T15:01:00.997Z,102253.66
2023-02-11T15:03:32.810Z,102265.09
2023-02-11T15:06:04.252Z,102265.16
2023-02-11T15:08:38.243Z,102278.28
2023-02-11T15:11:12.897Z,102279.22
2023-02-11T15:13:47.472Z,102282.75
2023-02-11T15:16:19.414Z,102295.16
2023-02-11T15:18:51.665Z,102302.19
2023-02-11T15:21:24.651Z,102309.34
2023-02-11T15:23:59.959Z,102315.47
2023-02-11T15:26:29.102Z,102305.94
2023-02-11T15:28:57.363Z,102328.69
2023-02-11T15:31:27.749Z,102329.66
2023-02-11T15:33:56.183Z,102333.09
2023-02-11T15:36:28.687Z,102329.66
2023-02-11T15:39:31.249Z,102327.72
2023-02-11T15:42:21.453Z,102330.44
2023-02-11T15:44:56.483Z,102333.00
2023-02-11T15:47:30.835Z,102336.56
2023-02-11T15:49:59.185Z,102334.75
2023-02-11T15:52:29.510Z,102334.63
2023-02-11T15:55:02.391Z,102350.53
2023-02-11T15:57:30.881Z,102357.59
2023-02-11T16:00:04.293Z,102366.50
2023-02-11T16:02:45.183Z,102371.88
2023-02-11T16:05:28.277Z,102379.75
2023-02-11T16:07:57.388Z,102370.75
2023-02-11T16:10:30.591Z,102385.72
2023-02-11T16:13:19.733Z,102389.31
2023-02-11T16:15:52.449Z,102390.94
2023-02-11T16:18:37.903Z,102387.44
2023-02-11T16:21:13.221Z,102398.00
2023-02-11T16:23:43.169Z,102407.78
2023-02-11T16:26:23.270Z,102410.44
2023-02-11T16:28:52.347Z,102409.56
2023-02-11T16:31:20.860Z,102413.91
2023-02-11T16:33:49.127Z,102415.59
2023-02-11T16:36:18.203Z,102414.94
2023-02-11T16:38:46.385Z,102409.59
2023-02-11T16:41:15.921Z,102423.59
2023-02-11T16:43:44.129Z,102423.44
2023-02-11T16:46:15.914Z,102433.22
2023-02-11T16:48:44.731Z,102437.47
2023-02-11T16:51:13.205Z,102439.44
2023-02-11T16:53:41.470Z,102447.25
2023-02-11T16:56:15.255Z,102451.53
2023-02-11T16:58:45.410Z,102449.88
2023-02-11T17:01:14.421Z,102461.28
2023-02-11T17:03:43.713Z,102451.72
2023-02-11T17:06:13.559Z,102455.19
2023-02-11T17:08:41.864Z,102457.81
2023-02-11T17:11:10.104Z,102459.66
2023-02-11T17:13:39.495Z,102462.97
2023-02-11T17:16:16.997Z,102459.50
2023-02-11T17:18:45.298Z,102467.75
2023-02-11T17:21:13.877Z,102467.41
2023-02-11T17:23:42.152Z,102468.28
2023-02-11T17:26:10.691Z,102471.06
2023-02-11T17:28:39.018Z,102482.31
2023-02-11T17:31:09.644Z,102492.03
2023-02-11T17:33:39.298Z,102488.66
2023-02-11T17:36:09.006Z,102489.47
2023-02-11T17:38:38.936Z,102497.44
2023-02-11T17:41:07.264Z,102499.09
2023-02-11T17:43:35.522Z,102506.22
2023-02-11T17:46:07.244Z,102514.28
2023-02-11T17:48:35.548Z,102522.25
2023-02-11T17:51:05.509Z,102517.03
2023-02-11T17:53:33.978Z,102534.34
2023-02-11T17:56:06.280Z,102523.09
2023-02-11T17:58:34.432Z,102539.66
2023-02-11T18:01:02.696Z,102551.03
2023-02-11T18:03:30.939Z,102538.88
2023-02-11T18:06:01.148Z,102546.06
2023-02-11T18:08:31.108Z,102566.09
2023-02-11T18:10:59.393Z,102560.91
2023-02-11T18:13:28.620Z,102565.22
2023-02-11T18:16:02.252Z,102567.94
2023-02-11T18:18:30.796Z,102565.22
2023-02-11T18:20:59.272Z,102575.78
2023-02-11T18:23:28.296Z,102572.16
2023-02-11T18:25:57.772Z,102582.69
2023-02-11T18:28:26.026Z,102587.03
2023-02-11T18:30:58.481Z,102584.47
2023-02-11T18:33:27.695Z,102584.34
2023-02-11T18:35:56.278Z,102584.34
2023-02-11T18:38:25.302Z,102586.19
2023-02-11T18:40:53.463Z,102598.50
2023-02-11T18:43:23.338Z,102603.13
2023-02-11T18:45:52.333Z,102614.75
2023-02-11T18:48:20.682Z,102611.84
2023-02-11T18:50:48.876Z,102612.66
2023-02-11T18:53:17.035Z,102609.41
2023-02-11T18:55:46.497Z,102606.00
2023-02-11T18:58:15.308Z,102618.41
2023-02-11T19:00:47.885Z,102631.63
2023-02-11T19:03:16.429Z,102645.56
2023-02-11T19:05:45.659Z,102644.69
2023-02-11T19:08:14.770Z,102642.09
2023-02-11T19:10:44.444Z,102652.66
2023-02-11T19:13:13.789Z,102656.09
2023-02-11T19:15:42.378Z,102656.31
2023-02-11T19:18:13.193Z,102662.38
2023-02-11T19:20:41.839Z,102675.56
2023-02-11T19:23:10.881Z,102685.25
2023-02-11T19:25:39.212Z,102694.84
2023-02-11T19:28:07.408Z,102694.06
2023-02-11T19:30:36.974Z,102701.00
2023-02-11T19:33:05.199Z,102706.47
2023-02-11T19:35:36.736Z,102695.91
2023-02-11T19:38:05.855Z,102705.44
2023-02-11T19:40:34.137Z,102702.94
2023-02-11T19:43:02.681Z,102701.88
2023-02-11T19:45:31.177Z,102709.78
2023-02-11T19:47:59.331Z,102716.88
2023-02-11T19:50:27.495Z,102716.13
2023-02-11T19:52:57.276Z,102718.69
2023-02-11T19:55:25.434Z,102713.53
2023-02-11T19:57:53.570Z,102722.44
2023-02-11T20:00:22.532Z,102725.03
2023-02-11T20:02:50.722Z,102729.28
2023-02-11T20:05:19.079Z,102739.94
2023-02-11T20:07:47.229Z,102745.38
2023-02-11T20:10:18.028Z,102755.00
2023-02-11T20:12:46.239Z,102754.09
2023-02-11T20:15:14.407Z,102770.75
2023-02-11T20:17:42.603Z,102762.06
2023-02-11T20:20:12.978Z,102762.16
2023-02-11T20:22:41.135Z,102770.97
2023-02-11T20:25:10.898Z,102781.44
2023-02-11T20:27:41.041Z,102789.44
2023-02-11T20:30:10.506Z,102784.13
2023-02-11T20:32:38.800Z,102786.84
2023-02-11T20:35:09.807Z,102796.47
2023-02-11T20:37:39.610Z,102804.25
2023-02-11T20:40:08.725Z,102802.56
2023-02-11T20:42:36.881Z,102820.06
2023-02-11T20:45:06.756Z,102806.06
2023-02-11T20:47:34.871Z,102813.91
2023-02-11T20:50:03.003Z,102813.94
2023-02-11T20:52:31.160Z,102817.53
2023-02-11T20:55:00.088Z,102813.97
2023-02-11T20:57:28.271Z,102818.28
2023-02-11T20:59:56.421Z,102809.44
2023-02-11T21:02:25.933Z,102818.09
2023-02-11T21:04:54.082Z,102825.97
2023-02-11T21:07:22.722Z,102822.53
2023-02-11T21:09:51.138Z,102817.28
2023-02-11T21:12:19.295Z,102819.00
2023-02-11T21:14:48.407Z,102819.00
2023-02-11T21:17:17.108Z,102834.84
2023-02-11T21:19:46.678Z,102837.47
2023-02-11T21:22:16.302Z,102833.97
2023-02-11T21:24:44.667Z,102837.53
2023-02-11T21:27:12.836Z,102842.84
2023-02-11T21:29:53.489Z,102848.97
2023-02-11T21:32:22.888Z,102841.19
2023-02-11T21:34:52.396Z,102846.31
2023-02-11T21:37:23.102Z,102854.25
2023-02-11T21:39:51.520Z,102859.53
2023-02-11T21:42:19.765Z,102866.59
2023-02-11T21:44:47.924Z,102866.56
2023-02-11T21:47:16.099Z,102865.66
2023-02-11T21:49:44.273Z,102870.09
2023-02-11T21:52:13.772Z,102879.72
2023-02-11T21:54:42.469Z,102884.19
2023-02-11T21:57:11.028Z,102884.09
2023-02-11T21:59:39.335Z,102892.91
2023-02-11T22:02:07.487Z,102896.28
2023-02-11T22:04:36.828Z,102902.38
2023-02-11T22:07:05.086Z,102903.19
2023-02-11T22:09:34.572Z,102910.22
2023-02-11T22:12:02.756Z,102911.94
2023-02-11T22:14:32.378Z,102902.22
2023-02-11T22:17:00.713Z,102899.66
2023-02-11T22:19:29.016Z,102913.63
2023-02-11T22:21:57.185Z,102915.41
2023-02-11T22:24:25.397Z,102915.38
2023-02-11T22:26:54.909Z,102914.50
2023-02-11T22:29:23.075Z,102920.56
2023-02-11T22:31:51.315Z,102920.56
2023-02-11T22:34:19.560Z,102929.34
2023-02-11T22:36:47.724Z,102934.59
2023-02-11T22:39:17.484Z,102939.00
2023-02-11T22:41:47.291Z,102939.03
2023-02-11T22:44:17.636Z,102938.22
2023-02-11T22:46:45.771Z,102937.28
2023-02-11T22:49:16.310Z,102936.41
2023-02-11T22:51:44.766Z,102935.50
2023-02-11T22:54:15.309Z,102939.91
2023-02-11T22:56:44.081Z,102943.38
2023-02-11T22:59:14.424Z,102940.75
2023-02-11T23:01:44.554Z,102946.03
2023-02-11T23:04:16.906Z,102948.63
2023-02-11T23:06:47.394Z,102949.53
2023-02-11T23:09:15.625Z,102949.59
2023-02-11T23:11:44.144Z,102946.97
2023-02-11T23:14:12.598Z,102942.53
2023-02-11T23:16:41.256Z,102952.19
2023-02-11T23:19:12.311Z,102948.69
2023-02-11T23:21:40.734Z,102941.72
2023-02-11T23:24:11.993Z,102945.16
2023-02-11T23:26:40.988Z,102943.41
2023-02-11T23:29:09.767Z,102949.53
2023-02-11T23:31:40.704Z,102948.72
2023-02-11T23:34:10.660Z,102948.84
2023-02-11T23:36:39.003Z,102946.06
2023-02-11T23:39:07.181Z,102954.06
2023-02-11T23:41:35.519Z,102968.09
2023-02-11T23:44:03.966Z,102961.91
2023-02-11T23:46:32.178Z,102968.09
2023-02-11T23:49:01.183Z,102975.13
2023-02-11T23:51:30.974Z,102976.00
2023-02-11T23:53:59.184Z,102977.75
2023-02-11T23:56:28.753Z,102983.97
2023-02-11T23:58:59.104Z,102988.38
